Terminal Aerodrome Forecast
Issued by NWS

Home | Current Version | Previous Version | Graphics & Text | Print | Product List | Glossary On
Versions: 1 2 3 4 5 6 7 8 9 10 11 12 13 14
393
FTUS43 KICT 202322
TAFHUT
TAF
KHUT 202322Z 2100/2124 17011KT P6SM BKN250
     FM210600 18007KT P6SM SCT250
     FM211600 19017G24KT P6SM SKC=

USA.gov is the U.S. government's official web portal to all federal, state and local government web resources and services.